Time;durP1;ratioP1;P1;durP2;ratioP2;P2;SDS_P1;SDS_P2;PMS_P1;PMS_P2;Temp;Humidity;BMP_temperature;BMP_pressure;BME280_temperature;BME280_humidity;BME280_pressure;Samples;Min_cycle;Max_cycle;Signal;HPM_P1;HPM_P2
2023/01/22 00:01:11;;;;;;;;;42.75;33.00;;;;;1.12;100.00;102730.00;5076359;27;45600;-73
2023/01/22 00:03:38;;;;;;;;;41.75;36.75;;;;;1.11;100.00;102730.09;5077121;28;45516;-75
2023/01/22 00:06:04;;;;;;;;;39.50;28.75;;;;;1.10;100.00;102733.78;5076972;27;45403;-72
2023/01/22 00:08:30;;;;;;;;;37.25;30.00;;;;;1.11;100.00;102717.47;5065004;27;45624;-74
2023/01/22 00:10:55;;;;;;;;;48.50;40.75;;;;;1.14;100.00;102724.50;5078251;27;46126;-73
2023/01/22 00:13:23;;;;;;;;;43.75;33.50;;;;;1.08;100.00;102720.38;5090699;27;45381;-74
2023/01/22 00:15:49;;;;;;;;;49.25;34.50;;;;;1.04;100.00;102713.41;5081881;27;45425;-73
2023/01/22 00:18:18;;;;;;;;;44.00;30.00;;;;;1.13;100.00;102729.03;5074410;27;45530;-73
2023/01/22 00:20:48;;;;;;;;;38.00;26.00;;;;;1.14;100.00;102729.91;5062529;27;45940;-74
2023/01/22 00:23:15;;;;;;;;;47.75;33.25;;;;;0.99;100.00;102710.16;5085553;27;45744;-73
2023/01/22 00:25:40;;;;;;;;;46.25;35.75;;;;;1.12;100.00;102727.28;5088055;27;45609;-73
2023/01/22 00:28:06;;;;;;;;;42.00;35.50;;;;;1.03;100.00;102714.38;5057040;28;45538;-75
2023/01/22 00:30:32;;;;;;;;;54.25;39.00;;;;;1.03;100.00;102711.69;5067749;27;46106;-73
2023/01/22 00:33:01;;;;;;;;;40.00;31.25;;;;;1.08;100.00;102725.78;5070497;27;45128;-74
2023/01/22 00:35:26;;;;;;;;;44.25;36.25;;;;;1.09;100.00;102726.63;5064926;28;45525;-74
2023/01/22 00:37:52;;;;;;;;;46.50;34.25;;;;;1.08;100.00;102720.38;5055511;27;45252;-72
2023/01/22 00:40:20;;;;;;;;;46.75;37.00;;;;;1.09;100.00;102713.97;5076373;28;45857;-75
2023/01/22 00:42:45;;;;;;;;;35.75;34.25;;;;;1.05;100.00;102725.97;5072233;28;45758;-71
2023/01/22 00:45:14;;;;;;;;;48.25;41.25;;;;;1.04;100.00;102716.13;5077681;27;45891;-75
2023/01/22 00:47:40;;;;;;;;;55.50;41.00;;;;;1.08;100.00;102722.19;5058519;28;45750;-73
2023/01/22 00:50:06;;;;;;;;;44.50;35.50;;;;;1.06;100.00;102706.06;5074807;28;45552;-74
2023/01/22 00:52:32;;;;;;;;;43.25;34.25;;;;;1.08;100.00;102723.06;5056510;27;46849;-73
2023/01/22 00:54:57;;;;;;;;;47.00;37.50;;;;;1.02;100.00;102715.38;5074493;28;45310;-73
2023/01/22 00:57:23;;;;;;;;;55.75;40.75;;;;;1.06;100.00;102708.78;5057056;28;45349;-73
2023/01/22 00:59:49;;;;;;;;;58.50;40.50;;;;;1.13;100.00;102722.78;5075587;28;45292;-73
2023/01/22 01:02:15;;;;;;;;;38.25;31.75;;;;;1.11;100.00;102703.06;5077174;28;45422;-74
2023/01/22 01:04:41;;;;;;;;;35.50;29.50;;;;;1.05;100.00;102698.97;5078861;27;45933;-73
2023/01/22 01:07:07;;;;;;;;;44.75;38.00;;;;;1.17;100.00;102705.41;5077296;27;46010;-74
2023/01/22 01:09:32;;;;;;;;;43.75;36.75;;;;;1.17;100.00;102703.56;5085339;27;45489;-73
2023/01/22 01:11:59;;;;;;;;;45.25;38.75;;;;;1.23;100.00;102702.31;5064705;27;48088;-73
2023/01/22 01:14:25;;;;;;;;;45.75;30.75;;;;;1.26;100.00;102696.69;5084439;27;44811;-73
2023/01/22 01:16:50;;;;;;;;;53.00;38.75;;;;;1.13;100.00;102669.59;5076196;28;45426;-75
2023/01/22 01:19:16;;;;;;;;;44.00;35.25;;;;;1.23;100.00;102694.19;5077913;28;45818;-71
2023/01/22 01:21:45;;;;;;;;;48.25;39.00;;;;;1.22;100.00;102700.56;5076794;27;46201;-73
2023/01/22 01:24:11;;;;;;;;;50.75;37.00;;;;;1.23;100.00;102708.56;5077384;28;45707;-73
2023/01/22 01:26:38;;;;;;;;;45.50;37.25;;;;;1.22;100.00;102714.94;5078123;28;45452;-72
2023/01/22 01:29:05;;;;;;;;;40.00;34.00;;;;;1.15;100.00;102699.22;5078249;28;45700;-74
2023/01/22 01:31:30;;;;;;;;;47.00;37.25;;;;;1.19;100.00;102709.72;5078708;28;45800;-72
2023/01/22 01:33:56;;;;;;;;;52.25;34.00;;;;;1.17;100.00;102724.31;5088719;27;45815;-71
2023/01/22 01:36:23;;;;;;;;;32.25;32.00;;;;;1.17;100.00;102732.44;5095651;27;45442;-73
2023/01/22 01:38:50;;;;;;;;;46.00;38.25;;;;;1.16;100.00;102728.00;5090677;27;45769;-71
2023/01/22 01:41:19;;;;;;;;;34.75;26.25;;;;;1.11;100.00;102722.00;5089636;27;45623;-71
2023/01/22 01:43:45;;;;;;;;;58.00;43.00;;;;;1.16;100.00;102738.78;5073083;27;45407;-72
2023/01/22 01:46:23;;;;;;;;;57.25;40.00;;;;;1.11;100.00;102739.09;5078042;27;45442;-73
2023/01/22 01:48:53;;;;;;;;;45.25;38.25;;;;;1.08;100.00;102731.19;5077721;27;45427;-72
2023/01/22 01:51:30;;;;;;;;;56.50;42.50;;;;;1.09;100.00;102715.81;5078184;27;46463;-73
2023/01/22 01:53:58;;;;;;;;;46.50;39.50;;;;;1.06;100.00;102725.00;5059703;28;45285;-72
2023/01/22 01:56:30;;;;;;;;;52.50;38.00;;;;;1.07;100.00;102718.63;5077150;27;45875;-73
2023/01/22 01:59:01;;;;;;;;;42.75;35.50;;;;;0.97;100.00;102702.13;5078190;27;45682;-74
2023/01/22 02:01:26;;;;;;;;;53.00;42.75;;;;;1.08;100.00;102716.78;5074143;28;46139;-74
2023/01/22 02:03:52;;;;;;;;;52.25;41.00;;;;;1.00;100.00;102703.78;5077503;27;45466;-73
2023/01/22 02:06:18;;;;;;;;;47.50;38.75;;;;;0.98;100.00;102697.59;5078834;28;45366;-73
2023/01/22 02:08:47;;;;;;;;;51.75;39.50;;;;;1.08;100.00;102703.28;5061181;28;46086;-72
2023/01/22 02:11:13;;;;;;;;;44.50;36.50;;;;;1.07;100.00;102707.81;5091224;27;45708;-72
2023/01/22 02:13:45;;;;;;;;;48.00;38.25;;;;;1.06;100.00;102711.47;5072643;28;45690;-73
2023/01/22 02:16:13;;;;;;;;;53.00;40.75;;;;;1.10;100.00;102717.56;5075797;28;45828;-74
2023/01/22 02:18:39;;;;;;;;;48.25;40.25;;;;;1.11;100.00;102713.88;5078044;28;45459;-73
2023/01/22 02:21:43;;;;;;;;;51.25;40.50;;;;;1.13;100.00;102720.06;5078064;27;46872;-73
2023/01/22 02:24:14;;;;;;;;;56.00;38.75;;;;;1.15;100.00;102723.53;5058627;28;45805;-72
2023/01/22 02:26:41;;;;;;;;;51.50;40.75;;;;;1.08;100.00;102722.19;5081559;27;45363;-81
2023/01/22 02:29:08;;;;;;;;;47.50;38.00;;;;;1.06;100.00;102722.28;5085924;28;45559;-80
2023/01/22 02:31:38;;;;;;;;;59.00;41.50;;;;;1.10;100.00;102723.84;5094396;27;45335;-83
2023/01/22 02:34:05;;;;;;;;;55.00;41.25;;;;;1.11;100.00;102719.28;5075985;27;45462;-81
2023/01/22 02:36:33;;;;;;;;;67.00;43.75;;;;;1.09;100.00;102702.31;5087011;28;45315;-82
2023/01/22 02:38:59;;;;;;;;;55.50;40.75;;;;;1.13;100.00;102707.44;5086752;27;45356;-81
2023/01/22 02:41:25;;;;;;;;;48.00;39.50;;;;;1.17;100.00;102714.38;5088842;28;45394;-81
2023/01/22 02:43:51;;;;;;;;;54.00;39.75;;;;;1.14;100.00;102702.88;5087155;28;45805;-82
2023/01/22 02:46:17;;;;;;;;;59.25;43.50;;;;;1.15;100.00;102710.91;5073540;28;45374;-81
2023/01/22 02:48:43;;;;;;;;;56.50;40.00;;;;;1.17;100.00;102713.53;5081575;27;44837;-80
2023/01/22 02:51:09;;;;;;;;;54.25;41.00;;;;;1.19;100.00;102703.47;5086722;28;45564;-80
2023/01/22 02:53:34;;;;;;;;;55.75;39.50;;;;;1.17;100.00;102708.97;5084703;28;45476;-80
2023/01/22 02:56:08;;;;;;;;;65.75;45.00;;;;;1.20;100.00;102711.47;5082931;27;45470;-81
2023/01/22 02:58:34;;;;;;;;;55.25;42.50;;;;;1.21;100.00;102715.91;5081556;27;45425;-81
2023/01/22 03:01:17;;;;;;;;;57.50;40.25;;;;;1.22;100.00;102720.34;5053099;28;46465;-82
2023/01/22 03:03:44;;;;;;;;;48.25;38.00;;;;;1.26;100.00;102717.44;5074185;27;45427;-79
2023/01/22 03:06:20;;;;;;;;;63.75;47.00;;;;;1.27;100.00;102714.63;5060536;27;45374;-80
2023/01/22 03:08:51;;;;;;;;;61.50;45.50;;;;;1.30;100.00;102719.84;5076011;27;45631;-80
2023/01/22 03:11:17;;;;;;;;;53.50;41.25;;;;;1.29;100.00;102712.72;5069282;27;45301;-81
2023/01/22 03:21:56;;;;;;;;;43.50;38.00;;;;;1.31;100.00;102710.78;5069894;27;45476;-79
2023/01/22 03:24:22;;;;;;;;;62.00;46.50;;;;;1.27;100.00;102721.88;5081570;27;46478;-81
2023/01/22 03:26:48;;;;;;;;;64.25;50.00;;;;;1.28;100.00;102712.81;5073803;28;45405;-81
2023/01/22 03:29:13;;;;;;;;;60.50;48.50;;;;;1.25;100.00;102707.63;5078482;28;45876;-81
2023/01/22 03:31:39;;;;;;;;;60.25;48.50;;;;;1.27;100.00;102708.38;5080646;28;46151;-80
2023/01/22 03:34:04;;;;;;;;;50.50;40.50;;;;;1.17;100.00;102703.56;5080609;28;45426;-81
2023/01/22 03:36:30;;;;;;;;;60.25;46.50;;;;;1.21;100.00;102715.91;5052978;27;45738;-80
2023/01/22 03:38:55;;;;;;;;;55.25;43.75;;;;;1.23;100.00;102707.72;5087902;27;45698;-80
2023/01/22 03:41:21;;;;;;;;;61.75;48.00;;;;;1.22;100.00;102717.63;5068582;28;45413;-81
2023/01/22 03:43:46;;;;;;;;;56.75;43.00;;;;;1.22;100.00;102717.63;5056329;28;45408;-80
2023/01/22 03:46:15;;;;;;;;;60.75;44.00;;;;;1.17;100.00;102703.56;5061270;28;44837;-80
2023/01/22 03:48:41;;;;;;;;;61.75;46.75;;;;;1.17;100.00;102705.41;5078841;28;45809;-78
2023/01/22 03:51:13;;;;;;;;;58.50;41.75;;;;;1.25;100.00;102721.97;5067547;28;46134;-79
2023/01/22 03:53:40;;;;;;;;;57.25;41.00;;;;;1.22;100.00;102714.94;5044483;28;45431;-81
2023/01/22 03:56:09;;;;;;;;;58.75;40.25;;;;;1.23;100.00;102705.88;5077306;28;45439;-79
2023/01/22 03:58:35;;;;;;;;;62.50;43.75;;;;;1.30;100.00;102711.72;5071801;28;45430;-80
2023/01/22 04:01:04;;;;;;;;;49.50;39.25;;;;;1.31;100.00;102709.91;5057486;28;45431;-79
2023/01/22 04:03:30;;;;;;;;;51.25;36.25;;;;;1.33;100.00;102713.38;5072743;28;45604;-79
2023/01/22 04:05:59;;;;;;;;;58.25;40.00;;;;;1.33;100.00;102710.66;5054396;28;45376;-79
2023/01/22 04:08:27;;;;;;;;;37.75;32.50;;;;;1.38;100.00;102712.13;5023855;28;47182;-80
2023/01/22 04:10:53;;;;;;;;;49.25;38.00;;;;;1.38;100.00;102705.84;5054981;28;46280;-81
2023/01/22 04:13:19;;;;;;;;;53.50;39.75;;;;;1.38;100.00;102695.91;5063076;28;45305;-80
2023/01/22 04:15:45;;;;;;;;;40.50;33.00;;;;;1.36;100.00;102705.06;5069445;28;45301;-79
2023/01/22 04:18:11;;;;;;;;;48.50;33.50;;;;;1.41;100.00;102697.53;5055652;28;45529;-79
2023/01/22 04:20:37;;;;;;;;;32.50;31.50;;;;;1.38;100.00;102700.44;5061376;28;45469;-80
2023/01/22 04:23:03;;;;;;;;;45.75;39.75;;;;;1.38;100.00;102704.00;5072362;28;45502;-80
2023/01/22 04:25:29;;;;;;;;;61.00;41.00;;;;;1.36;100.00;102699.66;5059835;28;45307;-80
2023/01/22 04:27:54;;;;;;;;;51.25;36.50;;;;;1.37;100.00;102698.69;5059682;28;45391;-79
2023/01/22 04:30:21;;;;;;;;;51.50;40.25;;;;;1.37;100.00;102701.41;5042005;28;46665;-80
2023/01/22 04:32:46;;;;;;;;;54.50;41.00;;;;;1.33;100.00;102697.16;5050628;28;45589;-80
2023/01/22 04:35:12;;;;;;;;;56.25;40.25;;;;;1.35;100.00;102712.31;5041324;28;46074;-79
2023/01/22 04:37:37;;;;;;;;;52.50;40.00;;;;;1.33;100.00;102703.44;5048372;27;46306;-80
2023/01/22 04:40:04;;;;;;;;;51.75;35.25;;;;;1.22;100.00;102690.59;5091732;27;45329;-81
2023/01/22 04:42:31;;;;;;;;;56.00;35.75;;;;;1.29;100.00;102706.44;5092186;27;45379;-80
2023/01/22 04:44:56;;;;;;;;;43.00;35.75;;;;;1.27;100.00;102694.84;5085669;27;45501;-79
2023/01/22 04:47:22;;;;;;;;;42.75;36.50;;;;;1.22;100.00;102687.91;5090788;27;45598;-79
2023/01/22 04:49:48;;;;;;;;;45.50;38.75;;;;;1.10;100.00;102677.91;5095748;27;45489;-81
2023/01/22 04:52:13;;;;;;;;;44.75;36.00;;;;;1.03;100.00;102663.94;5094727;27;45637;-79
2023/01/22 04:54:39;;;;;;;;;59.75;40.25;;;;;0.94;100.00;102669.03;5099907;27;45327;-82
2023/01/22 04:57:04;;;;;;;;;52.50;33.25;;;;;0.91;100.00;102666.53;5085744;28;45615;-79
2023/01/22 04:59:30;;;;;;;;;38.50;33.75;;;;;0.86;100.00;102673.09;5093039;27;45770;-80
2023/01/22 05:01:55;;;;;;;;;49.25;40.00;;;;;0.82;100.00;102676.09;5088664;27;45442;-79
2023/01/22 05:04:22;;;;;;;;;40.00;32.00;;;;;0.83;100.00;102672.44;5088811;27;45347;-80
2023/01/22 05:06:48;;;;;;;;;42.50;35.25;;;;;0.81;100.00;102679.75;5090696;27;44887;-81
2023/01/22 05:09:14;;;;;;;;;51.00;36.50;;;;;0.78;100.00;102675.44;5096392;27;45528;-79
2023/01/22 05:11:40;;;;;;;;;40.50;33.00;;;;;0.78;100.00;102675.44;5069553;28;45438;-80
2023/01/22 05:14:06;;;;;;;;;39.25;30.00;;;;;0.78;100.00;102679.94;5092495;27;45414;-79
2023/01/22 05:16:31;;;;;;;;;47.25;39.00;;;;;0.79;100.00;102671.75;5092925;27;45428;-81
2023/01/22 05:18:57;;;;;;;;;53.75;32.25;;;;;0.83;100.00;102678.69;5096356;27;45554;-79
2023/01/22 05:21:23;;;;;;;;;37.50;29.00;;;;;0.85;100.00;102671.38;5083455;27;45422;-81
2023/01/22 05:23:48;;;;;;;;;48.75;37.25;;;;;0.87;100.00;102664.03;5068421;28;45435;-79
2023/01/22 05:26:13;;;;;;;;;50.00;36.00;;;;;1.00;100.00;102657.84;5091774;27;45401;-79
2023/01/22 05:28:39;;;;;;;;;56.00;40.50;;;;;1.08;100.00;102662.75;5061335;28;47268;-80
2023/01/22 05:31:05;;;;;;;;;52.75;40.00;;;;;1.07;100.00;102653.78;5060008;28;45721;-80
2023/01/22 05:33:31;;;;;;;;;46.00;37.25;;;;;1.16;100.00;102669.38;5088600;27;45529;-80
2023/01/22 05:36:01;;;;;;;;;51.50;37.25;;;;;1.23;100.00;102676.13;5068923;27;47101;-80
2023/01/22 05:38:28;;;;;;;;;42.50;35.25;;;;;1.30;100.00;102675.72;5078406;27;45545;-81
2023/01/22 05:40:53;;;;;;;;;48.25;37.25;;;;;1.37;100.00;102666.25;5090331;27;45453;-77
2023/01/22 05:43:19;;;;;;;;;41.25;29.75;;;;;1.39;100.00;102662.50;5089260;27;45706;-81
2023/01/22 05:45:44;;;;;;;;;47.50;36.75;;;;;1.45;100.00;102661.19;5087917;27;45593;-79
2023/01/22 05:48:10;;;;;;;;;50.50;37.75;;;;;1.50;100.00;102659.06;5072516;28;46263;-78
2023/01/22 05:50:35;;;;;;;;;43.75;35.75;;;;;1.52;100.00;102649.00;5089116;28;45180;-79
2023/01/22 05:53:02;;;;;;;;;48.75;37.00;;;;;1.59;100.00;102653.03;5103212;27;45036;-81
2023/01/22 05:55:27;;;;;;;;;50.25;39.00;;;;;1.64;100.00;102651.88;5088845;28;45268;-78
2023/01/22 05:57:53;;;;;;;;;45.75;39.25;;;;;1.68;100.00;102651.56;5077510;28;45611;-80
2023/01/22 06:00:18;;;;;;;;;46.25;38.50;;;;;1.70;100.00;102637.94;5084290;28;44817;-80
2023/01/22 06:02:44;;;;;;;;;51.00;37.25;;;;;1.82;100.00;102656.03;5065287;28;45359;-79
2023/01/22 06:05:09;;;;;;;;;49.00;40.00;;;;;1.85;100.00;102653.13;5066292;28;45423;-79
2023/01/22 06:07:35;;;;;;;;;57.50;40.00;;;;;1.89;100.00;102651.94;5089612;28;45666;-80
2023/01/22 06:10:00;;;;;;;;;51.50;38.50;;;;;1.86;100.00;102641.34;5090838;27;45086;-79
2023/01/22 06:12:26;;;;;;;;;49.50;38.50;;;;;1.88;100.00;102655.59;5083374;27;45631;-80
2023/01/22 06:14:54;;;;;;;;;51.50;37.25;;;;;1.84;100.00;102656.81;5080537;28;45375;-80
2023/01/22 06:17:21;;;;;;;;;51.50;37.00;;;;;1.79;100.00;102658.09;5057416;28;47129;-82
2023/01/22 06:19:46;;;;;;;;;50.00;39.75;;;;;1.73;100.00;102668.34;5089024;28;45799;-78
2023/01/22 06:22:12;;;;;;;;;58.25;41.25;;;;;1.67;100.00;102665.19;5101393;27;45362;-81
2023/01/22 06:24:38;;;;;;;;;35.00;27.50;;;;;1.56;100.00;102669.47;5072667;28;44863;-80
2023/01/22 06:27:04;;;;;;;;;52.00;40.00;;;;;1.37;100.00;102647.34;5103606;27;45409;-80
2023/01/22 06:29:30;;;;;;;;;54.25;37.50;;;;;1.40;100.00;102661.50;5089261;28;44816;-81
2023/01/22 06:31:56;;;;;;;;;50.75;41.25;;;;;1.36;100.00;102664.50;5087943;28;45410;-80
2023/01/22 06:34:21;;;;;;;;;43.50;36.25;;;;;1.25;100.00;102653.56;5065884;28;46221;-80
2023/01/22 06:36:47;;;;;;;;;47.00;36.25;;;;;1.27;100.00;102670.53;5092868;27;45245;-81
2023/01/22 06:39:13;;;;;;;;;53.00;32.25;;;;;1.25;100.00;102667.94;5096921;27;45737;-84
2023/01/22 06:41:39;;;;;;;;;52.50;39.25;;;;;1.21;100.00;102667.28;5069702;27;45351;-80
2023/01/22 06:44:05;;;;;;;;;47.25;39.50;;;;;1.26;100.00;102679.59;5088644;27;45461;-80
2023/01/22 06:46:31;;;;;;;;;48.50;39.75;;;;;1.24;100.00;102666.19;5076660;28;45589;-79
2023/01/22 06:49:00;;;;;;;;;44.50;31.25;;;;;1.33;100.00;102675.53;5087395;27;45478;-84
2023/01/22 06:51:27;;;;;;;;;52.50;29.00;;;;;1.28;100.00;102664.16;5091691;27;45348;-81
2023/01/22 06:53:53;;;;;;;;;49.00;39.50;;;;;1.33;100.00;102671.00;5078468;27;45482;-82
2023/01/22 06:56:18;;;;;;;;;56.00;36.75;;;;;1.18;100.00;102661.19;5073540;28;46784;-79
2023/01/22 06:58:44;;;;;;;;;59.75;41.50;;;;;1.27;100.00;102675.94;5079974;27;45493;-82
2023/01/22 07:01:09;;;;;;;;;52.50;38.75;;;;;1.25;100.00;102683.28;5110605;27;44792;-80
2023/01/22 07:03:35;;;;;;;;;49.00;37.25;;;;;1.20;100.00;102681.75;5094973;27;45452;-80
2023/01/22 07:06:03;;;;;;;;;50.50;39.50;;;;;1.19;100.00;102684.56;5068288;27;45768;-79
2023/01/22 07:08:31;;;;;;;;;52.00;40.75;;;;;1.14;100.00;102678.56;5092586;27;45399;-80
2023/01/22 07:10:57;;;;;;;;;40.50;31.00;;;;;1.15;100.00;102683.91;5079891;27;45343;-81
2023/01/22 07:13:22;;;;;;;;;56.75;40.75;;;;;1.14;100.00;102679.44;5072413;27;45664;-80
2023/01/22 07:15:48;;;;;;;;;52.50;40.25;;;;;1.17;100.00;102690.06;5078300;28;45620;-81
2023/01/22 07:18:14;;;;;;;;;53.25;39.00;;;;;1.22;100.00;102687.91;5075046;28;45832;-80
2023/01/22 07:20:41;;;;;;;;;45.00;39.25;;;;;1.28;100.00;102689.34;5064096;28;45586;-79
2023/01/22 07:23:09;;;;;;;;;61.00;41.50;;;;;1.43;100.00;102697.44;5077683;27;44942;-80
2023/01/22 07:25:35;;;;;;;;;49.00;36.50;;;;;1.53;100.00;102709.38;5065365;28;46687;-79
2023/01/22 07:28:01;;;;;;;;;50.75;38.00;;;;;1.54;100.00;102695.75;5088514;27;45601;-81
2023/01/22 07:30:27;;;;;;;;;44.00;37.25;;;;;1.63;100.00;102707.78;5085043;27;45564;-79
2023/01/22 07:32:56;;;;;;;;;54.25;37.25;;;;;1.72;100.00;102709.91;5086189;27;44916;-80
2023/01/22 07:35:22;;;;;;;;;47.25;38.25;;;;;1.79;100.00;102707.63;5084038;27;45439;-79
2023/01/22 07:37:52;;;;;;;;;29.75;26.75;;;;;1.83;100.00;102711.88;5083840;27;45410;-81
2023/01/22 07:40:17;;;;;;;;;48.00;37.00;;;;;1.91;100.00;102700.53;5062407;28;44902;-79
2023/01/22 07:42:43;;;;;;;;;50.50;37.50;;;;;1.89;100.00;102706.06;5061974;27;47016;-80
2023/01/22 07:45:09;;;;;;;;;38.25;36.50;;;;;1.99;100.00;102716.25;5080801;27;45680;-79
2023/01/22 07:47:34;;;;;;;;;41.00;32.50;;;;;2.08;100.00;102721.91;5079914;27;45471;-80
2023/01/22 07:49:59;;;;;;;;;35.75;30.50;;;;;2.05;100.00;102699.59;5066315;28;45620;-80
2023/01/22 07:52:25;;;;;;;;;42.75;32.00;;;;;2.09;100.00;102701.97;5082802;27;45829;-80
2023/01/22 07:54:50;;;;;;;;;43.50;35.00;;;;;2.17;100.00;102716.84;5079685;27;45761;-82
2023/01/22 07:57:17;;;;;;;;;37.00;32.75;;;;;2.17;100.00;102715.00;5065154;28;44893;-80
2023/01/22 07:59:43;;;;;;;;;43.50;36.00;;;;;2.14;100.00;102715.22;5079690;27;45473;-79
2023/01/22 08:02:13;;;;;;;;;35.00;30.50;;;;;2.11;100.00;102710.88;5078404;27;45488;-81
2023/01/22 08:04:42;;;;;;;;;45.25;35.00;;;;;2.11;100.00;102710.00;5079910;27;45493;-81
2023/01/22 08:07:16;;;;;;;;;45.00;32.75;;;;;2.09;100.00;102711.94;5069855;27;44795;-81
2023/01/22 08:09:42;;;;;;;;;45.25;32.75;;;;;2.11;100.00;102723.53;5081635;27;45360;-81
2023/01/22 08:12:08;;;;;;;;;47.00;35.50;;;;;2.11;100.00;102712.69;5076566;27;44769;-80
2023/01/22 08:14:33;;;;;;;;;33.25;28.25;;;;;2.22;100.00;102722.81;5082519;27;45534;-80
2023/01/22 08:16:59;;;;;;;;;46.00;35.25;;;;;2.23;100.00;102720.00;5082367;27;45576;-81
2023/01/22 08:19:25;;;;;;;;;31.75;28.25;;;;;2.35;100.00;102728.22;5089591;27;45319;-81
2023/01/22 08:21:50;;;;;;;;;45.00;31.25;;;;;2.31;100.00;102722.19;5070021;27;46179;-82
2023/01/22 08:24:15;;;;;;;;;51.50;38.50;;;;;2.26;100.00;102708.97;5082368;27;45762;-82
2023/01/22 08:26:44;;;;;;;;;33.25;23.25;;;;;2.50;100.00;102742.56;5078990;27;45400;-81
2023/01/22 08:29:09;;;;;;;;;39.00;30.75;;;;;2.52;100.00;102744.19;5055919;28;45502;-81
2023/01/22 08:31:35;;;;;;;;;27.25;24.00;;;;;2.60;100.00;102747.22;5057046;28;45827;-81
2023/01/22 08:34:00;;;;;;;;;39.00;30.25;;;;;2.49;100.00;102724.59;5071177;27;46239;-81
2023/01/22 08:36:26;;;;;;;;;36.00;32.25;;;;;2.75;100.00;102750.69;5085604;27;44918;-80
2023/01/22 08:38:52;;;;;;;;;41.25;30.50;;;;;2.67;100.00;102736.84;5079112;28;45627;-84
2023/01/22 08:41:17;;;;;;;;;34.25;28.75;;;;;2.82;100.00;102753.84;5081698;27;45525;-81
2023/01/22 08:43:43;;;;;;;;;70.75;53.00;;;;;2.80;100.00;102744.97;5079962;28;46757;-80
2023/01/22 08:46:08;;;;;;;;;26.75;17.75;;;;;2.80;100.00;102756.69;5079683;28;45685;-82
2023/01/22 08:48:34;;;;;;;;;44.00;32.75;;;;;2.83;100.00;102761.03;5081186;27;45256;-81
2023/01/22 08:51:00;;;;;;;;;35.50;29.00;;;;;2.79;100.00;102756.78;5082331;27;45730;-81
2023/01/22 08:53:25;;;;;;;;;41.50;34.25;;;;;2.89;100.00;102759.69;5056103;28;46996;-82
2023/01/22 08:55:51;;;;;;;;;28.00;21.00;;;;;2.97;100.00;102762.75;5057728;28;45610;-80
2023/01/22 08:58:19;;;;;;;;;29.75;28.25;;;;;2.98;100.00;102767.19;5059465;27;45510;-81
2023/01/22 09:00:44;;;;;;;;;39.25;33.50;;;;;3.06;100.00;102762.09;5065105;27;47001;-82
2023/01/22 09:03:10;;;;;;;;;26.75;19.75;;;;;3.24;100.00;102759.88;5079472;27;46868;-81
2023/01/22 09:05:38;;;;;;;;;32.00;28.50;;;;;3.43;100.00;102761.25;5058344;28;45376;-81
2023/01/22 09:08:03;;;;;;;;;37.50;27.50;;;;;3.55;100.00;102754.94;5082792;27;45167;-82
2023/01/22 09:10:29;;;;;;;;;34.75;25.50;;;;;3.65;100.00;102741.56;5081078;28;45399;-80
2023/01/22 09:12:58;;;;;;;;;33.75;30.75;;;;;3.80;100.00;102745.84;5088460;27;45363;-83
2023/01/22 09:15:23;;;;;;;;;26.75;24.25;;;;;3.80;100.00;102723.25;5078915;27;45434;-81
2023/01/22 09:17:49;;;;;;;;;34.50;27.00;;;;;3.92;100.00;102744.03;5081759;27;45942;-80
2023/01/22 09:20:14;;;;;;;;;34.50;31.00;;;;;3.93;100.00;102740.34;5085105;27;45385;-82
2023/01/22 09:22:43;;;;;;;;;30.50;25.00;;;;;4.01;100.00;102746.09;5085022;27;45785;-81
2023/01/22 09:25:09;;;;;;;;;37.75;33.75;;;;;4.24;100.00;102746.19;5076069;28;45438;-81
2023/01/22 09:27:34;;;;;;;;;39.75;25.75;;;;;4.47;100.00;102744.38;5077843;27;45490;-81
2023/01/22 09:30:00;;;;;;;;;43.25;28.00;;;;;4.62;100.00;102745.03;5080635;28;45120;-81
2023/01/22 09:32:25;;;;;;;;;37.00;32.75;;;;;4.73;100.00;102733.31;5101826;27;45340;-81
2023/01/22 09:34:51;;;;;;;;;20.25;14.00;;;;;4.81;100.00;102747.19;5072838;28;44827;-79
2023/01/22 09:37:16;;;;;;;;;35.00;29.25;;;;;4.88;100.00;102742.09;5084347;27;45560;-81
2023/01/22 09:39:42;;;;;;;;;34.75;27.75;;;;;4.91;100.00;102758.19;5070835;28;45287;-81
2023/01/22 09:42:15;;;;;;;;;18.50;15.25;;;;;4.86;100.00;102760.41;5092251;27;46341;-82
2023/01/22 09:44:46;;;;;;;;;32.50;30.00;;;;;4.86;100.00;102749.53;5088202;27;45359;-81
2023/01/22 09:47:31;;;;;;;;;37.25;29.75;;;;;4.96;100.00;102758.69;5089047;27;45415;-81
2023/01/22 09:50:03;;;;;;;;;32.00;26.50;;;;;4.88;100.00;102769.28;5088185;28;44771;-82
2023/01/22 09:52:32;;;;;;;;;35.50;30.00;;;;;4.83;100.00;102769.66;5090087;27;45595;-81
2023/01/22 09:54:58;;;;;;;;;36.00;25.75;;;;;4.72;100.00;102772.38;5072704;28;45156;-82
2023/01/22 09:57:23;;;;;;;;;43.75;32.50;;;;;4.72;100.00;102767.78;5091440;28;44745;-83
2023/01/22 09:59:54;;;;;;;;;30.00;24.00;;;;;4.73;100.00;102777.69;5086743;27;45593;-83
2023/01/22 10:02:50;;;;;;;;;35.25;30.25;;;;;4.74;100.00;102773.09;5091741;28;45390;-81
2023/01/22 10:05:22;;;;;;;;;38.25;30.25;;;;;4.66;100.00;102773.72;5051359;28;45633;-83
2023/01/22 10:08:13;;;;;;;;;35.50;25.50;;;;;4.57;100.00;102771.72;5082444;28;45521;-83
2023/01/22 10:10:39;;;;;;;;;28.75;24.00;;;;;4.44;100.00;102774.50;5069724;28;45486;-82
2023/01/22 10:13:09;;;;;;;;;30.00;24.50;;;;;4.30;100.00;102781.00;5074628;28;47374;-81
2023/01/22 10:15:35;;;;;;;;;35.00;26.25;;;;;4.13;100.00;102776.88;5080561;27;44812;-82
2023/01/22 10:18:21;;;;;;;;;26.50;19.50;;;;;4.11;100.00;102783.41;5071623;28;45552;-81
2023/01/22 10:20:48;;;;;;;;;35.75;30.25;;;;;4.02;100.00;102771.38;5080581;28;46012;-82
2023/01/22 10:23:20;;;;;;;;;21.25;18.50;;;;;3.97;100.00;102771.72;5076152;28;48016;-83
2023/01/22 10:25:46;;;;;;;;;33.50;24.25;;;;;3.75;100.00;102764.31;5086406;27;45450;-82
2023/01/22 10:28:14;;;;;;;;;24.50;22.75;;;;;3.88;100.00;102775.13;5083831;28;45438;-82
2023/01/22 10:30:47;;;;;;;;;29.25;23.75;;;;;4.02;100.00;102771.38;5076172;27;45327;-82
2023/01/22 10:33:21;;;;;;;;;31.25;27.25;;;;;3.96;100.00;102750.97;5077327;27;46435;-85
2023/01/22 10:35:51;;;;;;;;;32.25;23.50;;;;;4.11;100.00;102783.41;5083061;27;45210;-84
2023/01/22 10:38:29;;;;;;;;;30.00;24.75;;;;;4.14;100.00;102769.59;5062422;27;45666;-83
2023/01/22 10:41:03;;;;;;;;;29.25;23.50;;;;;4.06;100.00;102752.03;5060462;28;45549;-83
2023/01/22 10:43:34;;;;;;;;;31.50;25.75;;;;;4.23;100.00;102758.88;5064694;28;47276;-83
2023/01/22 10:46:05;;;;;;;;;26.50;24.00;;;;;4.23;100.00;102758.00;5085070;27;45583;-81
2023/01/22 10:48:32;;;;;;;;;21.50;18.75;;;;;4.11;100.00;102776.09;5079479;27;45486;-83
2023/01/22 10:50:59;;;;;;;;;30.00;24.00;;;;;4.07;100.00;102769.16;5072563;27;45758;-82
2023/01/22 10:53:34;;;;;;;;;28.00;24.00;;;;;3.99;100.00;102761.59;5083290;27;46195;-83
2023/01/22 10:56:03;;;;;;;;;29.75;28.25;;;;;4.01;100.00;102754.22;5089447;27;45442;-83
2023/01/22 10:58:36;;;;;;;;;30.75;23.25;;;;;3.99;100.00;102756.19;5083211;27;45836;-82
2023/01/22 11:01:27;;;;;;;;;29.00;23.00;;;;;3.91;100.00;102750.47;5083494;27;46539;-82
2023/01/22 11:03:53;;;;;;;;;36.75;25.00;;;;;3.86;100.00;102747.22;5058400;28;45629;-82
2023/01/22 11:06:26;;;;;;;;;31.00;23.75;;;;;3.93;100.00;102751.22;5052069;28;45851;-82
2023/01/22 11:09:05;;;;;;;;;22.25;20.50;;;;;3.95;100.00;102761.94;5080053;27;45800;-82
2023/01/22 11:11:37;;;;;;;;;24.50;21.00;;;;;3.84;100.00;102741.06;5077149;27;45722;-82
2023/01/22 11:14:12;;;;;;;;;32.25;20.50;;;;;3.78;100.00;102749.66;5084210;27;45751;-81
2023/01/22 11:16:39;;;;;;;;;21.25;18.25;;;;;3.73;100.00;102755.44;5076582;27;45770;-81
2023/01/22 11:19:18;;;;;;;;;26.75;18.50;;;;;3.67;100.00;102745.91;5078502;27;45398;-82